createdAt,value
2019-01-29T00:01:31.783Z,4.50
2019-01-29T00:03:58.587Z,6.50
2019-01-29T00:06:25.604Z,4.45
2019-01-29T00:08:52.701Z,4.47
2019-01-29T00:11:21.241Z,4.70
2019-01-29T00:13:48.159Z,4.47
2019-01-29T00:16:15.097Z,4.87
2019-01-29T00:18:42.249Z,4.42
2019-01-29T00:21:09.266Z,5.10
2019-01-29T00:23:36.226Z,5.55
2019-01-29T00:26:03.278Z,5.40
2019-01-29T00:28:30.178Z,5.12
2019-01-29T00:30:57.014Z,4.85
2019-01-29T00:33:25.240Z,4.28
2019-01-29T00:35:52.144Z,4.67
2019-01-29T00:38:19.150Z,4.40
2019-01-29T00:40:45.964Z,4.85
2019-01-29T00:43:13.260Z,5.12
2019-01-29T00:45:40.278Z,4.60
2019-01-29T00:48:07.198Z,4.70
2019-01-29T00:50:34.494Z,4.67
2019-01-29T00:53:01.411Z,5.05
2019-01-29T00:55:28.325Z,5.58
2019-01-29T00:57:55.332Z,4.85
2019-01-29T01:00:22.564Z,4.20
2019-01-29T01:02:49.834Z,4.90
2019-01-29T01:05:17.241Z,4.85
2019-01-29T01:07:44.512Z,4.05
2019-01-29T01:10:13.718Z,4.62
2019-01-29T01:12:40.978Z,4.70
2019-01-29T01:15:08.754Z,4.55
2019-01-29T01:17:35.681Z,5.03
2019-01-29T01:20:04.013Z,5.05
2019-01-29T01:22:31.079Z,4.70
2019-01-29T01:24:57.973Z,4.08
2019-01-29T01:27:24.787Z,5.40
2019-01-29T01:29:51.594Z,4.70
2019-01-29T01:32:18.667Z,5.15
2019-01-29T01:34:45.680Z,4.83
2019-01-29T01:37:12.933Z,5.10
2019-01-29T01:39:40.365Z,5.08
2019-01-29T01:42:07.165Z,4.90
2019-01-29T01:44:34.164Z,4.78
2019-01-29T01:47:01.070Z,3.70
2019-01-29T01:49:27.988Z,5.08
2019-01-29T01:51:54.798Z,4.95
2019-01-29T01:54:21.998Z,4.40
2019-01-29T01:56:49.017Z,4.50
2019-01-29T01:59:16.195Z,4.40
2019-01-29T02:01:43.346Z,4.25
2019-01-29T02:04:10.378Z,4.45
2019-01-29T02:06:37.629Z,3.80
2019-01-29T02:09:07.277Z,4.90
2019-01-29T02:11:34.177Z,4.42
2019-01-29T02:14:01.514Z,4.80
2019-01-29T02:16:28.565Z,4.40
2019-01-29T02:18:55.894Z,4.42
2019-01-29T02:21:26.326Z,4.87
2019-01-29T02:23:53.449Z,4.80
2019-01-29T02:26:21.010Z,4.35
2019-01-29T02:28:48.213Z,4.55
2019-01-29T02:31:15.569Z,4.17
2019-01-29T02:33:42.641Z,4.10
2019-01-29T02:36:09.711Z,4.60
2019-01-29T02:38:36.756Z,4.58
2019-01-29T02:41:03.851Z,4.58
2019-01-29T02:43:30.905Z,4.10
2019-01-29T02:45:57.974Z,4.58
2019-01-29T02:48:25.397Z,5.28
2019-01-29T02:50:52.488Z,4.17
2019-01-29T02:53:19.646Z,3.50
2019-01-29T02:55:46.969Z,3.62
2019-01-29T02:58:14.146Z,3.83
2019-01-29T03:00:41.219Z,4.10
2019-01-29T03:03:08.271Z,3.83
2019-01-29T03:05:35.335Z,3.60
2019-01-29T03:08:02.388Z,3.40
2019-01-29T03:10:29.480Z,3.70
2019-01-29T03:12:56.550Z,3.60
2019-01-29T03:15:26.297Z,3.62
2019-01-29T03:17:53.614Z,3.40
2019-01-29T03:20:20.708Z,4.20
2019-01-29T03:22:48.018Z,3.42
2019-01-29T03:25:15.288Z,3.30
2019-01-29T03:27:42.594Z,2.98
2019-01-29T03:30:11.726Z,3.37
2019-01-29T03:32:38.851Z,3.40
2019-01-29T03:35:06.420Z,3.62
2019-01-29T03:37:33.329Z,3.55
2019-01-29T03:40:00.258Z,3.35
2019-01-29T03:42:27.386Z,3.30
2019-01-29T03:44:54.297Z,3.30
2019-01-29T03:47:21.457Z,3.00
2019-01-29T03:49:48.371Z,3.22
2019-01-29T03:52:15.292Z,3.25
2019-01-29T03:54:42.307Z,3.40
2019-01-29T03:57:09.496Z,2.60
2019-01-29T03:59:36.398Z,3.30
2019-01-29T04:02:03.404Z,2.50
2019-01-29T04:04:30.305Z,2.80
2019-01-29T04:06:57.381Z,2.77
2019-01-29T04:09:24.374Z,2.90
2019-01-29T04:11:51.405Z,3.15
2019-01-29T04:14:18.399Z,2.75
2019-01-29T04:16:45.313Z,3.62
2019-01-29T04:19:12.465Z,3.30
2019-01-29T04:21:39.370Z,3.35
2019-01-29T04:24:06.282Z,3.22
2019-01-29T04:26:33.086Z,2.50
2019-01-29T04:29:00.006Z,2.87
2019-01-29T04:31:27.257Z,4.10
2019-01-29T04:33:54.181Z,2.72
2019-01-29T04:36:21.014Z,3.20
2019-01-29T04:38:47.923Z,3.58
2019-01-29T04:41:14.833Z,3.60
2019-01-29T04:43:41.749Z,4.08
2019-01-29T04:46:08.912Z,3.87
2019-01-29T04:48:35.832Z,2.90
2019-01-29T04:51:03.095Z,3.72
2019-01-29T04:53:30.202Z,3.67
2019-01-29T04:55:56.984Z,3.35
2019-01-29T04:58:23.898Z,3.27
2019-01-29T05:00:50.905Z,3.17
2019-01-29T05:03:17.726Z,3.37
2019-01-29T05:05:44.628Z,2.85
2019-01-29T05:08:11.583Z,3.22
2019-01-29T05:10:38.385Z,3.70
2019-01-29T05:13:05.413Z,3.40
2019-01-29T05:15:32.579Z,3.00
2019-01-29T05:17:59.674Z,2.87
2019-01-29T05:20:26.829Z,2.75
2019-01-29T05:22:53.982Z,3.47
2019-01-29T05:25:20.918Z,3.67
2019-01-29T05:27:48.047Z,3.40
2019-01-29T05:30:17.363Z,3.10
2019-01-29T05:32:44.640Z,3.42
2019-01-29T05:35:12.185Z,3.40
2019-01-29T05:37:39.180Z,3.70
2019-01-29T05:40:08.795Z,3.25
2019-01-29T05:42:35.932Z,3.52
2019-01-29T05:45:03.791Z,3.30
2019-01-29T05:47:30.594Z,2.80
2019-01-29T05:49:57.514Z,3.60
2019-01-29T05:52:24.690Z,3.70
2019-01-29T05:54:51.606Z,2.92
2019-01-29T05:57:18.416Z,3.45
2019-01-29T05:59:45.330Z,3.10
2019-01-29T06:02:12.373Z,3.40
2019-01-29T06:04:39.184Z,3.20
2019-01-29T06:07:06.382Z,3.72
2019-01-29T06:09:33.579Z,3.67
2019-01-29T06:12:00.386Z,3.22
2019-01-29T06:14:27.633Z,3.40
2019-01-29T06:16:54.545Z,3.05
2019-01-29T06:19:21.436Z,3.25
2019-01-29T06:21:48.510Z,3.17
2019-01-29T06:24:15.410Z,4.00
2019-01-29T06:26:42.333Z,4.00
2019-01-29T06:29:09.136Z,3.80
2019-01-29T06:31:36.127Z,4.47
2019-01-29T06:34:03.422Z,3.52
2019-01-29T06:36:30.224Z,3.12
2019-01-29T06:38:57.036Z,3.58
2019-01-29T06:41:24.301Z,3.77
2019-01-29T06:43:51.462Z,4.58
2019-01-29T06:46:18.372Z,3.98
2019-01-29T06:48:45.274Z,3.87
2019-01-29T06:51:12.147Z,3.25
2019-01-29T06:53:38.933Z,4.12
2019-01-29T06:56:05.844Z,4.05
2019-01-29T06:58:32.850Z,3.90
2019-01-29T07:00:59.997Z,3.90
2019-01-29T07:03:26.909Z,4.47
2019-01-29T07:05:54.067Z,4.10
2019-01-29T07:08:21.333Z,4.83
2019-01-29T07:10:48.242Z,4.15
2019-01-29T07:13:15.164Z,4.15
2019-01-29T07:16:08.042Z,4.80
2019-01-29T07:18:54.713Z,3.47
2019-01-29T07:21:22.282Z,4.28
2019-01-29T07:23:49.186Z,4.08
2019-01-29T07:26:16.342Z,4.37
2019-01-29T07:28:43.262Z,4.30
2019-01-29T07:31:10.534Z,4.42
2019-01-29T07:33:37.697Z,4.95
2019-01-29T07:36:04.596Z,5.25
2019-01-29T07:38:31.858Z,4.10
2019-01-29T07:40:58.862Z,5.08
2019-01-29T07:43:25.772Z,4.70
2019-01-29T07:45:52.928Z,4.28
2019-01-29T07:48:19.907Z,4.97
2019-01-29T07:50:46.910Z,4.92
2019-01-29T07:53:13.888Z,6.10
2019-01-29T07:55:41.120Z,5.92
2019-01-29T07:58:08.124Z,4.67
2019-01-29T08:00:35.052Z,4.25
2019-01-29T08:03:02.074Z,5.22
2019-01-29T08:05:28.972Z,5.15
2019-01-29T08:07:56.132Z,4.90
2019-01-29T08:10:24.650Z,5.40
2019-01-29T08:12:51.911Z,5.15
2019-01-29T08:15:19.136Z,4.50
2019-01-29T08:17:46.149Z,4.90
2019-01-29T08:20:13.557Z,4.67
2019-01-29T08:22:40.785Z,4.95
2019-01-29T08:25:07.809Z,3.92
2019-01-29T08:27:34.709Z,3.90
2019-01-29T08:30:01.635Z,4.08
2019-01-29T08:32:28.554Z,4.10
2019-01-29T08:34:55.464Z,4.28
2019-01-29T08:37:22.382Z,4.85
2019-01-29T08:39:49.205Z,5.08
2019-01-29T08:42:16.210Z,4.60
2019-01-29T08:44:43.038Z,4.67
2019-01-29T08:47:10.069Z,3.92
2019-01-29T08:49:36.913Z,4.95
2019-01-29T08:52:04.173Z,3.87
2019-01-29T08:54:31.108Z,4.78
2019-01-29T08:56:58.113Z,4.47
2019-01-29T08:59:25.016Z,4.35
2019-01-29T09:01:51.929Z,4.92
2019-01-29T09:04:19.004Z,4.55
2019-01-29T09:06:45.830Z,4.47
2019-01-29T09:09:12.665Z,5.47
2019-01-29T09:11:39.674Z,5.83
2019-01-29T09:14:06.578Z,5.55
2019-01-29T09:16:33.602Z,5.85
2019-01-29T09:19:00.919Z,5.75
2019-01-29T09:21:27.978Z,6.30
2019-01-29T09:23:55.116Z,5.28
2019-01-29T09:26:22.054Z,5.50
2019-01-29T09:28:49.356Z,6.37
2019-01-29T09:31:16.317Z,5.92
2019-01-29T09:33:43.400Z,5.85
2019-01-29T09:36:10.560Z,6.42
2019-01-29T09:38:37.352Z,6.37
2019-01-29T09:41:04.525Z,5.85
2019-01-29T09:43:31.714Z,6.37
2019-01-29T09:45:58.995Z,7.83
2019-01-29T09:48:25.892Z,6.25
2019-01-29T09:50:52.815Z,5.80
2019-01-29T09:53:19.816Z,7.53
2019-01-29T09:55:48.223Z,6.97
2019-01-29T09:58:15.034Z,6.30
2019-01-29T10:00:42.053Z,6.35
2019-01-29T10:03:10.433Z,6.50
2019-01-29T10:05:37.561Z,7.00
2019-01-29T10:08:05.562Z,6.50
2019-01-29T10:10:32.877Z,6.20
2019-01-29T10:12:59.863Z,6.67
2019-01-29T10:15:28.786Z,6.00
2019-01-29T10:17:55.961Z,5.83
2019-01-29T10:20:23.066Z,6.03
2019-01-29T10:22:50.149Z,6.58
2019-01-29T10:25:17.256Z,6.45
2019-01-29T10:27:44.354Z,7.25
2019-01-29T10:30:12.486Z,6.50
2019-01-29T10:32:39.513Z,6.20
2019-01-29T10:35:09.169Z,7.50
2019-01-29T10:37:35.981Z,6.53
2019-01-29T10:40:04.795Z,6.83
2019-01-29T10:42:31.764Z,6.33
2019-01-29T10:44:58.665Z,7.33
2019-01-29T10:47:25.576Z,7.15
2019-01-29T10:49:52.726Z,6.78
2019-01-29T10:52:19.545Z,7.37
2019-01-29T10:54:46.445Z,8.13
2019-01-29T10:57:13.402Z,6.87
2019-01-29T10:59:40.444Z,7.15
2019-01-29T11:02:07.453Z,7.37
2019-01-29T11:04:34.470Z,7.15
2019-01-29T11:07:01.368Z,8.30
2019-01-29T11:09:28.186Z,8.50
2019-01-29T11:11:55.344Z,7.75
2019-01-29T11:14:22.600Z,8.50
2019-01-29T11:16:49.616Z,7.75
2019-01-29T11:19:16.528Z,7.55
2019-01-29T11:21:43.882Z,7.97
2019-01-29T11:24:10.803Z,8.68
2019-01-29T11:26:37.962Z,7.70
2019-01-29T11:29:05.068Z,8.85
2019-01-29T11:31:32.329Z,8.08
2019-01-29T11:33:59.406Z,7.20
2019-01-29T11:36:26.462Z,7.40
2019-01-29T11:38:53.481Z,7.20
2019-01-29T11:41:20.386Z,8.10
2019-01-29T11:43:47.434Z,7.20
2019-01-29T11:46:14.445Z,7.17
2019-01-29T11:48:41.613Z,7.60
2019-01-29T11:51:08.681Z,9.25
2019-01-29T11:53:35.576Z,7.50
2019-01-29T11:56:04.794Z,8.13
2019-01-29T11:58:31.605Z,6.15
2019-01-29T12:01:08.798Z,6.80
2019-01-29T12:03:35.702Z,7.00
2019-01-29T12:06:03.131Z,7.53
2019-01-29T12:08:30.169Z,6.65
2019-01-29T12:10:57.282Z,8.00
2019-01-29T12:13:24.525Z,7.70
2019-01-29T12:15:51.549Z,7.00
2019-01-29T12:18:18.816Z,8.23
2019-01-29T12:20:45.973Z,7.00
2019-01-29T12:23:13.054Z,7.12
2019-01-29T12:25:40.156Z,8.25
2019-01-29T12:28:07.072Z,7.33
2019-01-29T12:30:33.991Z,6.75
2019-01-29T12:33:01.541Z,6.87
2019-01-29T12:35:28.536Z,7.05
2019-01-29T12:37:55.333Z,6.90
2019-01-29T12:40:22.337Z,7.58
2019-01-29T12:42:49.328Z,7.15
2019-01-29T12:45:16.634Z,7.65
2019-01-29T12:47:43.634Z,7.25
2019-01-29T12:50:15.920Z,6.50
2019-01-29T12:53:06.424Z,7.00
2019-01-29T12:55:33.445Z,6.70
2019-01-29T12:58:00.454Z,6.83
2019-01-29T13:00:30.973Z,7.65
2019-01-29T13:02:57.982Z,7.78
2019-01-29T13:05:25.010Z,7.72
2019-01-29T13:07:51.967Z,6.87
2019-01-29T13:10:19.741Z,7.12
2019-01-29T13:12:46.838Z,8.50
2019-01-29T13:15:16.330Z,7.65
2019-01-29T13:17:43.252Z,8.18
2019-01-29T13:20:10.554Z,8.80
2019-01-29T13:22:42.976Z,6.65
2019-01-29T13:25:10.350Z,7.62
2019-01-29T13:27:37.262Z,7.08
2019-01-29T13:30:07.677Z,8.93
2019-01-29T13:32:34.606Z,10.32
2019-01-29T13:35:01.723Z,9.38
2019-01-29T13:37:28.600Z,9.40
2019-01-29T13:39:55.393Z,8.00
2019-01-29T13:42:22.675Z,12.68
2019-01-29T13:44:50.182Z,9.68
2019-01-29T13:47:17.631Z,8.15
2019-01-29T13:49:44.642Z,9.25
2019-01-29T13:52:11.892Z,7.80
2019-01-29T13:54:39.321Z,40.52
2019-01-29T13:57:06.785Z,17.80
2019-01-29T13:59:33.857Z,12.03
2019-01-29T14:02:01.265Z,8.48
2019-01-29T14:04:28.279Z,8.03
2019-01-29T14:06:55.550Z,6.72
2019-01-29T14:09:22.621Z,7.50
2019-01-29T14:11:49.533Z,7.25
2019-01-29T14:14:16.618Z,8.40
2019-01-29T14:16:43.561Z,7.00
2019-01-29T14:19:10.481Z,7.53
2019-01-29T14:21:37.437Z,7.65
2019-01-29T14:24:04.509Z,6.78
2019-01-29T14:26:31.571Z,7.37
2019-01-29T14:28:58.497Z,6.60
2019-01-29T14:31:25.505Z,7.60
2019-01-29T14:33:52.795Z,7.05
2019-01-29T14:36:19.707Z,6.95
2019-01-29T14:39:33.613Z,7.60
2019-01-29T14:42:01.106Z,6.95
2019-01-29T14:44:34.446Z,7.47
2019-01-29T14:47:01.459Z,6.75
2019-01-29T14:49:28.538Z,6.83
2019-01-29T14:51:55.705Z,7.37
2019-01-29T14:54:22.742Z,8.78
2019-01-29T14:56:56.687Z,9.15
2019-01-29T14:59:18.672Z,7.47
2019-01-29T15:01:46.054Z,7.90
2019-01-29T15:04:12.966Z,8.10
2019-01-29T15:06:40.093Z,7.65
2019-01-29T15:09:10.108Z,8.28
2019-01-29T15:11:37.210Z,8.68
2019-01-29T15:14:04.729Z,8.63
2019-01-29T15:16:40.600Z,8.78
2019-01-29T15:19:13.377Z,8.90
2019-01-29T15:21:40.657Z,9.75
2019-01-29T15:24:07.667Z,9.68
2019-01-29T15:26:34.882Z,8.23
2019-01-29T15:29:02.119Z,9.08
2019-01-29T15:31:29.113Z,7.75
2019-01-29T15:33:56.205Z,7.95
2019-01-29T15:36:23.455Z,8.65
2019-01-29T15:38:50.341Z,9.58
2019-01-29T15:41:17.402Z,8.15
2019-01-29T15:43:44.562Z,8.65
2019-01-29T15:46:11.597Z,8.10
2019-01-29T15:48:38.533Z,6.92
2019-01-29T15:51:05.788Z,8.00
2019-01-29T15:53:32.614Z,8.98
2019-01-29T15:55:59.525Z,9.90
2019-01-29T15:58:26.694Z,9.50
2019-01-29T16:00:53.596Z,10.43
2019-01-29T16:03:20.597Z,8.40
2019-01-29T16:05:47.608Z,7.70
2019-01-29T16:08:14.600Z,9.23
2019-01-29T16:10:41.993Z,8.73
2019-01-29T16:13:09.022Z,8.28
2019-01-29T16:15:36.482Z,9.58
2019-01-29T16:18:03.964Z,12.13
2019-01-29T16:20:30.989Z,10.50
2019-01-29T16:22:58.030Z,9.00
2019-01-29T16:25:25.363Z,9.28
2019-01-29T16:27:52.484Z,8.88
2019-01-29T16:30:24.026Z,8.53
2019-01-29T16:32:51.304Z,6.80
2019-01-29T16:35:21.368Z,7.97
2019-01-29T16:37:48.284Z,8.38
2019-01-29T16:40:16.324Z,7.78
2019-01-29T16:42:43.330Z,9.13
2019-01-29T16:45:12.505Z,9.20
2019-01-29T16:47:39.788Z,11.33
2019-01-29T16:50:06.965Z,16.60
2019-01-29T16:52:33.768Z,13.48
2019-01-29T16:55:00.671Z,28.98
2019-01-29T16:57:31.827Z,56.58
2019-01-29T16:59:56.765Z,30.50
2019-01-29T17:02:23.779Z,20.35
2019-01-29T17:04:50.660Z,25.48
2019-01-29T17:07:17.618Z,23.10
2019-01-29T17:09:44.717Z,10.98
2019-01-29T17:12:11.626Z,9.45
2019-01-29T17:14:38.765Z,10.48
2019-01-29T17:17:05.682Z,15.25
2019-01-29T17:19:32.668Z,11.43
2019-01-29T17:21:59.485Z,9.90
2019-01-29T17:24:26.300Z,8.88
2019-01-29T17:26:53.407Z,9.30
2019-01-29T17:29:20.415Z,9.40
2019-01-29T17:31:47.518Z,10.18
2019-01-29T17:34:14.589Z,9.43
2019-01-29T17:36:41.487Z,10.15
2019-01-29T17:39:08.651Z,9.35
2019-01-29T17:41:35.464Z,8.15
2019-01-29T17:44:02.478Z,13.55
2019-01-29T17:46:31.261Z,13.88
2019-01-29T17:48:58.650Z,15.40
2019-01-29T17:51:25.791Z,16.10
2019-01-29T17:53:55.158Z,12.50
2019-01-29T17:56:22.059Z,11.78
2019-01-29T17:58:49.469Z,9.58
2019-01-29T18:01:16.470Z,10.72
2019-01-29T18:03:43.426Z,10.50
2019-01-29T18:06:10.673Z,10.75
2019-01-29T18:08:38.151Z,19.05
2019-01-29T18:11:05.312Z,21.85
2019-01-29T18:13:32.345Z,25.90
2019-01-29T18:15:59.145Z,16.25
2019-01-29T18:18:26.366Z,14.83
2019-01-29T18:20:53.357Z,13.85
2019-01-29T18:23:21.052Z,13.55
2019-01-29T18:25:48.158Z,13.70
2019-01-29T18:28:15.329Z,15.13
2019-01-29T18:30:42.150Z,13.88
2019-01-29T18:33:09.326Z,16.60
2019-01-29T18:35:36.344Z,16.52
2019-01-29T18:38:03.456Z,20.90
2019-01-29T18:40:33.618Z,20.15
2019-01-29T18:43:00.836Z,16.90
2019-01-29T18:45:27.833Z,24.37
2019-01-29T18:47:54.824Z,14.98
2019-01-29T18:50:21.849Z,15.45
2019-01-29T18:52:54.414Z,17.48
2019-01-29T18:55:21.341Z,13.45
2019-01-29T18:57:48.337Z,13.75
2019-01-29T19:00:17.837Z,19.15
2019-01-29T19:02:45.184Z,19.23
2019-01-29T19:05:12.642Z,16.50
2019-01-29T19:07:39.893Z,16.70
2019-01-29T19:10:07.981Z,15.25
2019-01-29T19:12:34.881Z,15.58
2019-01-29T19:15:01.896Z,17.80
2019-01-29T19:17:28.904Z,18.80
2019-01-29T19:19:56.166Z,18.40
2019-01-29T19:22:23.338Z,16.07
2019-01-29T19:24:50.141Z,28.35
2019-01-29T19:27:17.301Z,22.65
2019-01-29T19:29:44.355Z,18.50
2019-01-29T19:32:11.200Z,18.70
2019-01-29T19:34:38.205Z,16.25
2019-01-29T19:37:05.184Z,12.90
2019-01-29T19:39:31.982Z,12.73
2019-01-29T19:41:59.110Z,12.03
2019-01-29T19:44:26.252Z,13.85
2019-01-29T19:46:53.468Z,14.75
2019-01-29T19:49:20.370Z,13.32
2019-01-29T19:51:49.039Z,13.85
2019-01-29T19:54:16.303Z,13.43
2019-01-29T19:56:43.290Z,11.73
2019-01-29T19:59:10.281Z,13.20
2019-01-29T20:01:37.389Z,13.03
2019-01-29T20:04:04.529Z,11.22
2019-01-29T20:06:31.674Z,10.85
2019-01-29T20:08:58.571Z,11.53
2019-01-29T20:11:29.908Z,18.23
2019-01-29T20:13:56.341Z,14.63
2019-01-29T20:16:23.584Z,13.48
2019-01-29T20:18:50.405Z,11.65
2019-01-29T20:21:17.800Z,12.20
2019-01-29T20:23:44.875Z,10.63
2019-01-29T20:26:11.871Z,23.30
2019-01-29T20:28:42.435Z,31.30
2019-01-29T20:31:07.754Z,27.02
2019-01-29T20:33:34.702Z,26.65
2019-01-29T20:36:01.978Z,22.67
2019-01-29T20:38:34.928Z,18.12
2019-01-29T20:40:57.964Z,21.62
2019-01-29T20:43:25.468Z,22.95
2019-01-29T20:45:52.468Z,23.02
2019-01-29T20:48:19.423Z,28.70
2019-01-29T20:50:46.225Z,13.18
2019-01-29T20:53:13.139Z,14.58
2019-01-29T20:55:40.049Z,16.80
2019-01-29T20:58:07.401Z,13.30
2019-01-29T21:00:36.668Z,11.05
2019-01-29T21:03:04.288Z,12.03
2019-01-29T21:05:31.189Z,16.42
2019-01-29T21:08:00.499Z,17.48
2019-01-29T21:10:27.215Z,16.90
2019-01-29T21:12:54.534Z,16.00
2019-01-29T21:15:22.158Z,14.07
2019-01-29T21:17:49.437Z,13.93
2019-01-29T21:20:21.329Z,15.45
2019-01-29T21:22:48.325Z,18.02
2019-01-29T21:25:15.333Z,14.23
2019-01-29T21:27:42.389Z,23.20
2019-01-29T21:30:13.616Z,19.92
2019-01-29T21:32:40.769Z,18.23
2019-01-29T21:35:08.168Z,15.45
2019-01-29T21:37:34.982Z,21.75
2019-01-29T21:40:02.245Z,18.48
2019-01-29T21:42:29.293Z,18.27
2019-01-29T21:44:56.109Z,14.33
2019-01-29T21:47:23.125Z,14.80
2019-01-29T21:49:49.941Z,9.08
2019-01-29T21:52:16.985Z,11.30
2019-01-29T21:54:43.892Z,9.85
2019-01-29T21:57:10.890Z,9.38
2019-01-29T21:59:37.794Z,8.10
2019-01-29T22:02:04.854Z,10.85
2019-01-29T22:04:31.650Z,15.03
2019-01-29T22:06:58.669Z,9.73
2019-01-29T22:09:28.073Z,9.30
2019-01-29T22:11:54.894Z,8.73
2019-01-29T22:14:22.072Z,8.88
2019-01-29T22:16:49.237Z,9.35
2019-01-29T22:19:16.489Z,13.70
2019-01-29T22:21:44.099Z,17.75
2019-01-29T22:24:11.172Z,16.20
2019-01-29T22:26:38.168Z,15.98
2019-01-29T22:29:05.408Z,17.52
2019-01-29T22:31:32.507Z,15.35
2019-01-29T22:33:59.520Z,15.03
2019-01-29T22:36:26.444Z,11.10
2019-01-29T22:38:53.470Z,13.50
2019-01-29T22:41:20.365Z,9.90
2019-01-29T22:43:47.411Z,9.20
2019-01-29T22:46:14.726Z,9.40
2019-01-29T22:48:41.929Z,9.23
2019-01-29T22:51:09.071Z,7.75
2019-01-29T22:53:36.296Z,8.48
2019-01-29T22:56:03.877Z,7.12
2019-01-29T22:58:30.702Z,9.10
2019-01-29T23:01:24.853Z,8.38
2019-01-29T23:04:04.462Z,10.98
2019-01-29T23:07:13.860Z,9.55
2019-01-29T23:09:40.966Z,9.70
2019-01-29T23:12:08.361Z,9.20
2019-01-29T23:14:35.981Z,9.10
2019-01-29T23:17:03.864Z,10.10
2019-01-29T23:19:30.885Z,9.03
2019-01-29T23:21:57.975Z,9.50
2019-01-29T23:24:25.258Z,9.30
2019-01-29T23:26:52.233Z,9.43
2019-01-29T23:29:19.369Z,9.93
2019-01-29T23:31:46.732Z,10.25
2019-01-29T23:34:13.945Z,13.68
2019-01-29T23:36:41.131Z,10.18
2019-01-29T23:39:08.443Z,9.30
2019-01-29T23:41:35.892Z,10.25
2019-01-29T23:44:03.414Z,9.13
2019-01-29T23:46:30.743Z,8.70
2019-01-29T23:48:57.873Z,10.50
2019-01-29T23:51:24.690Z,11.30
2019-01-29T23:53:51.765Z,9.90
2019-01-29T23:56:19.147Z,10.35
2019-01-29T23:58:45.979Z,10.40
